Terminal Aerodrome Forecast
Issued by NWS

Home | Current Version | Previous Version | Text Only | Print | Product List | Glossary On
Versions: 1 2 3 4 5 6 7 8 9 10 11 12 13 14 15 16 17 18 19 20 21 22
000
FTUS46 KLOX 110500
TAFVNY
TAF
KVNY 110520Z 1106/1206 VRB03KT P6SM SKC
     FM111000 VRB03KT 6SM BR OVC008
     FM111400 VRB03KT 6SM BR OVC010
     FM111700 VRB03KT P6SM SKC
     FM112100 14008KT P6SM SKC
     FM120300 VRB03KT P6SM SKC=

USA.gov is the U.S. government's official web portal to all federal, state and local government web resources and services.